Time;durP1;ratioP1;P1;durP2;ratioP2;P2;SDS_P1;SDS_P2;PMS_P1;PMS_P2;Temp;Humidity;BMP_temperature;BMP_pressure;BME280_temperature;BME280_humidity;BME280_pressure;Samples;Min_cycle;Max_cycle;Signal;HPM_P1;HPM_P2
2021/03/28 00:01:44;;;;;;;2.57;1.70;;;7.20;99.90;;;;;;5047896;28;20517;-71
2021/03/28 00:04:14;;;;;;;3.80;2.30;;;7.10;99.90;;;;;;5030521;28;20839;-71
2021/03/28 00:07:03;;;;;;;6.50;1.80;;;7.10;99.90;;;;;;5043498;28;20465;-71
2021/03/28 00:09:48;;;;;;;2.47;1.60;;;7.20;99.90;;;;;;5040537;28;20534;-71
2021/03/28 00:12:31;;;;;;;3.20;2.00;;;7.20;99.90;;;;;;5040732;28;20476;-71
2021/03/28 00:15:05;;;;;;;2.60;1.30;;;7.30;99.90;;;;;;5037124;28;20451;-70
2021/03/28 00:17:43;;;;;;;24.33;1.93;;;7.40;99.90;;;;;;5037359;28;20534;-70
2021/03/28 00:20:32;;;;;;;2.63;1.40;;;7.50;99.90;;;;;;5043356;28;20474;-70
2021/03/28 00:23:13;;;;;;;1.70;1.53;;;7.50;99.90;;;;;;5051375;28;20578;-69
2021/03/28 00:25:45;;;;;;;2.50;1.47;;;7.40;99.90;;;;;;5041204;28;20508;-70
2021/03/28 00:28:28;;;;;;;3.10;1.63;;;7.50;99.90;;;;;;5041535;28;20525;-70
2021/03/28 00:31:11;;;;;;;10.93;2.10;;;7.40;99.90;;;;;;5039068;28;20470;-70
2021/03/28 00:33:38;;;;;;;2.40;1.60;;;7.30;99.90;;;;;;5044005;28;20465;-70
2021/03/28 00:36:08;;;;;;;5.57;1.50;;;7.40;99.90;;;;;;5041790;28;20503;-70
2021/03/28 00:38:52;;;;;;;2.63;1.70;;;7.60;99.90;;;;;;5039354;28;20462;-70
2021/03/28 00:41:22;;;;;;;7.20;2.13;;;7.60;99.90;;;;;;5041155;28;20513;-70
2021/03/28 00:43:54;;;;;;;4.70;1.57;;;7.80;99.90;;;;;;5044253;28;22808;-70
2021/03/28 00:46:41;;;;;;;5.33;1.83;;;7.80;99.90;;;;;;5040693;28;20464;-70
2021/03/28 00:49:12;;;;;;;2.33;2.10;;;7.80;99.90;;;;;;5037358;28;20779;-70
2021/03/28 00:51:47;;;;;;;3.50;1.20;;;7.80;99.90;;;;;;5042189;28;20426;-71
2021/03/28 00:54:17;;;;;;;1.40;1.20;;;7.70;99.90;;;;;;5046713;28;20434;-70
2021/03/28 00:56:48;;;;;;;5.67;1.77;;;7.70;99.90;;;;;;5037578;28;20461;-71
2021/03/28 00:59:21;;;;;;;1.70;1.30;;;7.70;99.90;;;;;;5037876;28;21069;-71
2021/03/28 01:02:09;;;;;;;2.30;1.30;;;7.70;99.90;;;;;;5039307;28;20519;-70
2021/03/28 01:05:11;;;;;;;8.40;2.47;;;7.80;99.90;;;;;;5043168;28;21669;-70
2021/03/28 01:07:58;;;;;;;1.40;1.23;;;7.70;99.90;;;;;;5039558;28;20484;-70
2021/03/28 01:11:23;;;;;;;1.93;1.23;;;7.60;99.90;;;;;;5035894;28;20457;-71
2021/03/28 01:14:09;;;;;;;2.33;1.00;;;7.70;99.90;;;;;;5039866;28;20537;-70
2021/03/28 01:17:02;;;;;;;1.20;1.10;;;7.70;99.90;;;;;;5036097;28;20457;-70
2021/03/28 01:20:02;;;;;;;2.33;1.83;;;7.70;99.90;;;;;;5041633;28;20452;-71
2021/03/28 01:22:40;;;;;;;20.70;2.27;;;7.70;99.90;;;;;;5016393;28;20471;-71
2021/03/28 01:25:25;;;;;;;4.63;2.20;;;7.80;99.90;;;;;;5040686;28;20519;-70
2021/03/28 01:27:56;;;;;;;3.30;2.43;;;7.70;99.90;;;;;;5049015;28;20458;-70
2021/03/28 01:30:35;;;;;;;6.30;2.13;;;7.70;99.90;;;;;;5027471;28;20968;-71
2021/03/28 01:33:07;;;;;;;2.63;2.43;;;7.60;99.90;;;;;;5041100;28;21036;-71
2021/03/28 01:35:45;;;;;;;5.20;1.87;;;7.60;99.90;;;;;;5040983;28;20562;-69
2021/03/28 01:38:18;;;;;;;8.23;1.77;;;7.60;99.90;;;;;;5039577;28;20426;-70
2021/03/28 01:40:50;;;;;;;1.80;1.50;;;7.60;99.90;;;;;;5045769;28;20480;-71
2021/03/28 01:43:25;;;;;;;2.07;1.60;;;7.60;99.90;;;;;;5047102;28;20677;-71
2021/03/28 01:45:58;;;;;;;3.47;2.90;;;7.60;99.90;;;;;;5042004;28;20506;-70
2021/03/28 01:48:37;;;;;;;3.07;2.27;;;7.60;99.90;;;;;;5043486;28;20430;-70
2021/03/28 01:51:42;;;;;;;3.73;1.67;;;7.60;99.90;;;;;;5042340;28;20459;-70
2021/03/28 01:54:17;;;;;;;6.63;1.73;;;7.70;99.90;;;;;;5030330;28;20509;-70
2021/03/28 01:56:51;;;;;;;1.47;1.30;;;7.70;99.90;;;;;;5043386;28;20520;-70
2021/03/28 01:59:35;;;;;;;3.77;2.00;;;7.70;99.90;;;;;;5035202;28;20445;-71
2021/03/28 02:02:09;;;;;;;4.40;2.07;;;7.80;99.90;;;;;;5047049;28;21281;-70
2021/03/28 02:04:51;;;;;;;8.97;2.27;;;7.60;99.90;;;;;;5035992;28;20447;-70
2021/03/28 02:07:31;;;;;;;25.93;3.27;;;7.60;99.90;;;;;;5042857;28;20463;-70
2021/03/28 02:10:14;;;;;;;4.77;1.50;;;7.70;99.90;;;;;;5043313;28;20450;-71
2021/03/28 02:12:48;;;;;;;2.27;1.47;;;7.70;99.90;;;;;;5046353;28;20476;-70
2021/03/28 02:15:52;;;;;;;2.07;1.43;;;7.70;99.90;;;;;;5051538;28;20481;-70
2021/03/28 02:18:37;;;;;;;2.13;1.97;;;7.80;99.90;;;;;;5043132;28;20517;-70
2021/03/28 02:21:13;;;;;;;3.57;1.77;;;7.80;99.90;;;;;;5041265;28;20565;-70
2021/03/28 02:23:46;;;;;;;1.33;1.23;;;7.80;99.90;;;;;;5043322;28;20941;-70
2021/03/28 02:26:25;;;;;;;7.93;2.40;;;7.80;99.90;;;;;;5042510;28;20449;-70
2021/03/28 02:28:59;;;;;;;11.40;2.93;;;7.90;99.90;;;;;;5040155;28;20448;-70
2021/03/28 02:31:35;;;;;;;4.93;1.60;;;7.90;99.90;;;;;;5049123;28;20907;-70
2021/03/28 02:34:15;;;;;;;1.40;1.23;;;8.00;99.90;;;;;;5046013;28;21127;-71
2021/03/28 02:36:57;;;;;;;4.90;1.37;;;8.00;99.90;;;;;;5041356;28;21645;-69
2021/03/28 02:39:28;;;;;;;5.63;1.57;;;7.90;99.90;;;;;;5038971;28;20454;-70
2021/03/28 02:42:08;;;;;;;3.40;1.80;;;7.90;99.90;;;;;;5046567;28;20450;-70
2021/03/28 02:44:54;;;;;;;2.00;1.37;;;7.90;99.90;;;;;;5047913;28;20924;-70
2021/03/28 02:47:54;;;;;;;15.23;2.40;;;8.00;99.90;;;;;;5043801;28;20444;-70
2021/03/28 02:50:54;;;;;;;2.27;2.00;;;8.00;99.90;;;;;;5045304;28;20754;-70
2021/03/28 02:53:29;;;;;;;3.50;1.40;;;8.00;99.90;;;;;;5043774;28;20459;-71
2021/03/28 02:56:28;;;;;;;1.20;1.10;;;8.00;99.90;;;;;;5039892;28;21359;-69
2021/03/28 02:59:19;;;;;;;2.10;1.70;;;8.00;99.90;;;;;;5039981;28;20444;-70
2021/03/28 03:02:13;;;;;;;2.03;1.83;;;7.90;99.90;;;;;;5050644;28;20453;-68
2021/03/28 03:05:21;;;;;;;1.90;1.60;;;7.90;99.90;;;;;;5038092;28;20451;-74
2021/03/28 03:08:05;;;;;;;6.70;2.30;;;7.90;99.90;;;;;;5022477;28;20442;-71
2021/03/28 03:10:57;;;;;;;1.73;1.20;;;7.90;99.90;;;;;;5039144;28;20433;-70
2021/03/28 03:13:47;;;;;;;1.90;1.20;;;7.90;99.90;;;;;;5046126;28;20533;-69
2021/03/28 03:16:22;;;;;;;2.30;1.87;;;7.90;99.90;;;;;;5044654;28;20453;-70
2021/03/28 03:19:34;;;;;;;14.03;2.10;;;7.90;99.90;;;;;;5042032;28;20454;-69
2021/03/28 03:22:43;;;;;;;5.30;1.87;;;7.80;99.90;;;;;;5018858;28;20459;-74
2021/03/28 03:25:57;;;;;;;8.07;1.70;;;7.80;99.90;;;;;;5046275;28;20568;-69
2021/03/28 03:28:55;;;;;;;3.43;1.40;;;7.80;99.90;;;;;;5038644;28;20434;-69
2021/03/28 03:31:47;;;;;;;4.80;1.70;;;7.80;99.90;;;;;;5044249;28;20564;-70
2021/03/28 03:34:50;;;;;;;2.57;1.10;;;7.80;99.90;;;;;;5049571;28;20583;-73
2021/03/28 03:37:56;;;;;;;1.70;1.20;;;7.70;99.90;;;;;;5033412;28;20494;-73
2021/03/28 03:40:34;;;;;;;1.17;1.07;;;7.70;99.90;;;;;;5039175;28;20559;-71
2021/03/28 03:43:37;;;;;;;2.87;1.67;;;7.70;99.90;;;;;;5049114;28;21163;-70
2021/03/28 03:46:08;;;;;;;6.93;1.60;;;7.70;99.90;;;;;;5048316;28;20472;-71
2021/03/28 03:48:59;;;;;;;2.47;1.00;;;7.80;99.90;;;;;;5040262;28;20429;-68
2021/03/28 03:51:38;;;;;;;2.80;1.40;;;7.80;99.90;;;;;;5039766;28;20430;-69
2021/03/28 03:54:11;;;;;;;2.70;1.50;;;7.70;99.90;;;;;;5043551;28;20508;-68
2021/03/28 03:56:56;;;;;;;2.50;1.20;;;7.70;99.90;;;;;;5044236;28;20490;-69
2021/03/28 03:59:34;;;;;;;2.43;1.40;;;7.80;99.90;;;;;;5044505;28;20515;-72
2021/03/28 04:02:06;;;;;;;2.90;2.20;;;7.90;99.90;;;;;;5044963;28;20569;-68
2021/03/28 04:04:46;;;;;;;1.27;1.10;;;7.90;99.90;;;;;;5044880;28;20438;-70
2021/03/28 04:07:33;;;;;;;1.83;1.10;;;8.00;99.90;;;;;;5040967;28;20433;-68
2021/03/28 04:10:23;;;;;;;8.57;2.20;;;7.90;99.90;;;;;;5044946;28;20534;-69
2021/03/28 04:13:26;;;;;;;1.53;1.43;;;8.00;99.90;;;;;;5044097;28;20430;-70
2021/03/28 04:16:27;;;;;;;1.80;1.30;;;8.00;99.90;;;;;;5049117;28;20522;-72
2021/03/28 04:19:33;;;;;;;3.90;2.97;;;8.00;99.90;;;;;;4998365;28;20425;-68
2021/03/28 04:22:35;;;;;;;1.70;1.03;;;7.90;99.90;;;;;;4970865;28;20520;-72
2021/03/28 04:25:15;;;;;;;3.00;1.00;;;8.00;99.90;;;;;;4967160;28;20831;-71
2021/03/28 04:28:20;;;;;;;2.20;1.30;;;8.10;99.90;;;;;;5029345;28;20446;-70
2021/03/28 04:31:19;;;;;;;3.73;1.70;;;8.00;99.90;;;;;;4996910;28;20490;-69
2021/03/28 04:33:54;;;;;;;1.40;1.30;;;7.90;99.90;;;;;;5038058;28;20840;-70
2021/03/28 04:36:29;;;;;;;5.17;1.47;;;8.00;99.90;;;;;;5050616;28;20484;-69
2021/03/28 04:39:37;;;;;;;4.87;1.60;;;8.10;99.90;;;;;;5047993;28;22127;-72
2021/03/28 04:42:53;;;;;;;1.67;1.13;;;8.10;99.90;;;;;;4998692;28;20479;-75
2021/03/28 04:46:04;;;;;;;2.70;1.80;;;8.00;99.90;;;;;;4962515;28;20473;-68
2021/03/28 04:49:07;;;;;;;1.13;0.90;;;8.00;99.90;;;;;;5045794;28;20455;-69
2021/03/28 04:52:12;;;;;;;2.07;1.57;;;8.10;99.90;;;;;;5042281;28;20930;-68
2021/03/28 04:55:00;;;;;;;1.57;1.30;;;8.10;99.90;;;;;;4953380;28;21029;-71
2021/03/28 04:57:57;;;;;;;1.47;1.10;;;8.00;99.90;;;;;;5037237;28;20461;-70
2021/03/28 05:00:50;;;;;;;2.80;1.13;;;8.00;99.90;;;;;;5038494;28;20446;-68
2021/03/28 05:03:47;;;;;;;4.40;1.23;;;8.00;99.90;;;;;;5051100;28;20425;-69
2021/03/28 05:06:55;;;;;;;4.13;1.20;;;8.00;99.90;;;;;;5043838;28;20532;-68
2021/03/28 05:09:48;;;;;;;3.97;2.00;;;8.00;99.90;;;;;;5041585;28;20458;-72
2021/03/28 05:12:51;;;;;;;2.27;1.30;;;8.00;99.90;;;;;;5041422;28;20524;-68
2021/03/28 05:16:06;;;;;;;1.67;1.33;;;8.00;99.90;;;;;;5041846;28;20518;-69
2021/03/28 05:19:23;;;;;;;2.37;1.40;;;8.00;99.90;;;;;;5049797;28;20445;-71
2021/03/28 05:22:26;;;;;;;1.53;1.33;;;8.10;99.90;;;;;;5036473;28;20418;-72
2021/03/28 05:25:36;;;;;;;19.20;3.90;;;8.10;99.90;;;;;;5043084;28;20466;-70
2021/03/28 05:28:48;;;;;;;1.60;0.90;;;8.10;99.90;;;;;;5046812;28;20434;-71
2021/03/28 05:31:55;;;;;;;1.80;1.07;;;8.10;99.90;;;;;;5030991;28;20476;-69
2021/03/28 05:34:59;;;;;;;2.10;1.30;;;8.10;99.90;;;;;;5037980;28;20466;-74
2021/03/28 05:38:18;;;;;;;1.20;1.10;;;8.20;99.90;;;;;;5036740;28;20941;-70
2021/03/28 05:41:22;;;;;;;6.77;1.83;;;8.30;99.90;;;;;;5051461;28;20570;-69
2021/03/28 05:44:21;;;;;;;2.83;1.37;;;8.30;99.90;;;;;;5047367;28;20557;-68
2021/03/28 05:47:23;;;;;;;3.53;1.30;;;8.40;99.90;;;;;;5048153;28;20462;-70
2021/03/28 05:50:19;;;;;;;2.17;1.43;;;8.40;99.90;;;;;;5034515;28;20786;-68
2021/03/28 05:53:22;;;;;;;5.43;1.93;;;8.50;99.90;;;;;;5048752;28;20533;-70
2021/03/28 05:56:14;;;;;;;7.10;1.40;;;8.30;99.90;;;;;;5056995;28;20524;-70
2021/03/28 05:59:05;;;;;;;2.00;1.20;;;8.30;99.90;;;;;;5043085;28;20437;-72
2021/03/28 06:01:45;;;;;;;3.57;1.30;;;8.50;99.90;;;;;;5041522;28;20459;-73
2021/03/28 06:04:47;;;;;;;1.47;1.00;;;8.50;99.90;;;;;;5047321;28;21003;-69
2021/03/28 06:08:01;;;;;;;2.10;1.43;;;8.60;99.90;;;;;;5055592;28;20462;-69
2021/03/28 06:11:04;;;;;;;3.93;1.37;;;8.50;99.90;;;;;;5051632;28;20430;-70
2021/03/28 06:14:21;;;;;;;2.93;2.63;;;8.60;99.90;;;;;;5050018;28;20470;-69
2021/03/28 06:17:12;;;;;;;5.70;2.53;;;8.70;99.90;;;;;;5040589;28;20514;-70
2021/03/28 06:20:14;;;;;;;3.60;1.40;;;8.90;99.90;;;;;;5046861;28;20453;-71
2021/03/28 06:23:20;;;;;;;1.47;1.10;;;9.10;99.90;;;;;;5052955;28;20455;-70
2021/03/28 06:26:30;;;;;;;1.20;0.90;;;9.50;99.90;;;;;;5041132;28;20493;-70
2021/03/28 06:29:30;;;;;;;1.90;1.40;;;9.70;99.90;;;;;;5016066;28;20489;-70
2021/03/28 06:32:27;;;;;;;2.40;1.37;;;9.90;99.90;;;;;;5034077;28;20452;-68
2021/03/28 06:35:26;;;;;;;2.23;2.03;;;10.00;99.90;;;;;;5027805;28;20429;-71
2021/03/28 06:38:36;;;;;;;1.57;1.23;;;10.10;99.90;;;;;;5034806;28;20459;-74
2021/03/28 06:41:30;;;;;;;1.93;1.50;;;10.10;99.90;;;;;;5034038;28;20472;-73
2021/03/28 06:44:26;;;;;;;1.10;0.70;;;10.00;99.90;;;;;;5030765;28;20429;-72
2021/03/28 06:47:34;;;;;;;1.40;1.10;;;9.80;99.90;;;;;;5035103;28;20473;-71
2021/03/28 06:50:38;;;;;;;2.80;1.47;;;9.70;99.90;;;;;;5045101;28;20445;-73
2021/03/28 06:53:44;;;;;;;2.60;2.20;;;9.60;99.90;;;;;;5040777;28;20438;-73
2021/03/28 06:56:54;;;;;;;2.13;1.43;;;9.60;99.90;;;;;;5040730;28;20529;-73
2021/03/28 06:59:41;;;;;;;1.10;0.77;;;9.60;99.90;;;;;;5038551;28;20535;-69
2021/03/28 07:02:35;;;;;;;1.30;1.10;;;9.70;99.90;;;;;;5044663;28;20421;-69
2021/03/28 07:05:24;;;;;;;7.03;2.40;;;9.70;99.90;;;;;;5049536;28;20434;-70
2021/03/28 07:08:27;;;;;;;1.43;1.20;;;9.90;99.90;;;;;;5034240;28;20459;-72
2021/03/28 07:11:11;;;;;;;1.73;1.23;;;10.00;99.90;;;;;;5043316;28;20478;-69
2021/03/28 07:13:57;;;;;;;2.83;1.07;;;10.00;99.90;;;;;;5035674;28;20451;-68
2021/03/28 07:17:01;;;;;;;7.33;1.87;;;10.10;99.90;;;;;;5039155;28;21266;-69
2021/03/28 07:19:57;;;;;;;4.43;1.57;;;9.90;99.90;;;;;;5038577;28;20437;-70
2021/03/28 07:22:56;;;;;;;2.77;0.97;;;10.00;99.90;;;;;;5034443;28;20491;-69
2021/03/28 07:25:51;;;;;;;4.33;1.40;;;10.10;99.90;;;;;;5039710;28;25842;-69
2021/03/28 07:29:18;;;;;;;1.10;0.90;;;10.00;99.90;;;;;;5038277;28;20519;-71
2021/03/28 07:32:20;;;;;;;1.33;1.17;;;10.00;99.90;;;;;;4990190;28;20437;-69
2021/03/28 07:35:32;;;;;;;2.47;1.00;;;10.10;99.90;;;;;;5040957;28;20459;-69
2021/03/28 07:38:45;;;;;;;5.90;1.30;;;10.20;99.90;;;;;;5038426;28;20522;-71
2021/03/28 07:41:41;;;;;;;1.87;1.20;;;10.00;99.90;;;;;;5031644;28;20926;-71
2021/03/28 07:45:02;;;;;;;1.93;1.10;;;10.00;99.90;;;;;;5031229;28;20433;-70
2021/03/28 07:48:13;;;;;;;3.13;1.73;;;10.10;99.90;;;;;;4979978;28;25633;-70
2021/03/28 07:51:15;;;;;;;3.23;1.10;;;10.20;99.90;;;;;;5037045;28;20413;-70
2021/03/28 07:54:32;;;;;;;1.40;0.90;;;10.40;99.90;;;;;;5036946;28;20470;-69
2021/03/28 07:57:19;;;;;;;2.23;1.27;;;10.50;99.90;;;;;;5009293;28;20474;-73
2021/03/28 08:00:00;;;;;;;1.63;1.40;;;10.80;99.90;;;;;;5034492;28;20986;-74
2021/03/28 08:02:56;;;;;;;10.00;2.23;;;10.90;99.90;;;;;;5041246;28;20488;-68
2021/03/28 08:05:44;;;;;;;1.30;1.07;;;10.80;99.90;;;;;;5047534;28;20446;-69
2021/03/28 08:08:27;;;;;;;1.27;1.10;;;10.90;99.90;;;;;;5042655;28;20954;-69
2021/03/28 08:11:24;;;;;;;1.77;0.90;;;11.00;99.90;;;;;;5041081;28;20432;-68
2021/03/28 08:14:21;;;;;;;1.40;1.07;;;11.00;99.90;;;;;;5019822;28;20471;-71
2021/03/28 08:17:22;;;;;;;1.87;1.30;;;11.10;99.90;;;;;;5044974;28;20478;-69
2021/03/28 08:20:29;;;;;;;3.73;1.83;;;11.30;99.90;;;;;;5026547;28;20450;-70
2021/03/28 08:23:26;;;;;;;1.30;1.13;;;11.30;99.90;;;;;;5034209;28;20580;-71
2021/03/28 08:26:21;;;;;;;1.10;0.90;;;11.60;99.90;;;;;;5032311;28;20991;-70
2021/03/28 08:29:04;;;;;;;1.30;1.10;;;11.80;99.90;;;;;;5039153;28;20997;-68
2021/03/28 08:31:38;;;;;;;2.60;1.30;;;11.70;99.90;;;;;;5038327;28;21183;-69
2021/03/28 08:34:47;;;;;;;3.10;1.20;;;11.80;99.90;;;;;;5043979;28;20482;-70
2021/03/28 08:37:56;;;;;;;1.17;1.00;;;11.90;99.90;;;;;;5045440;28;20845;-70
2021/03/28 08:40:53;;;;;;;2.70;1.30;;;11.90;99.90;;;;;;5040737;28;20471;-71
2021/03/28 08:43:53;;;;;;;2.10;1.90;;;11.70;99.90;;;;;;5053738;28;20497;-70
2021/03/28 08:46:42;;;;;;;1.63;1.20;;;12.00;99.90;;;;;;5041036;28;20620;-69
2021/03/28 08:49:17;;;;;;;1.40;1.20;;;12.00;99.90;;;;;;5050331;28;21056;-70
2021/03/28 08:52:18;;;;;;;1.83;1.60;;;12.20;99.90;;;;;;5041245;28;20447;-70
2021/03/28 08:54:58;;;;;;;2.40;1.27;;;12.40;99.90;;;;;;5050953;28;20429;-70
2021/03/28 08:57:44;;;;;;;4.37;2.00;;;12.60;99.90;;;;;;5053155;28;20939;-69
2021/03/28 09:00:30;;;;;;;2.73;1.53;;;12.60;99.90;;;;;;5040381;28;21296;-74
2021/03/28 09:03:14;;;;;;;1.70;1.57;;;12.60;99.90;;;;;;5041079;28;20552;-70
2021/03/28 09:05:45;;;;;;;2.63;1.43;;;12.80;99.90;;;;;;5056939;28;20481;-71
2021/03/28 09:08:21;;;;;;;2.73;1.63;;;13.10;99.90;;;;;;5056496;28;20447;-71
2021/03/28 09:11:28;;;;;;;2.07;1.30;;;13.20;99.90;;;;;;5063385;28;20442;-69
2021/03/28 09:14:12;;;;;;;2.10;1.40;;;13.20;99.90;;;;;;5058937;28;20526;-71
2021/03/28 09:16:46;;;;;;;1.20;1.00;;;12.80;99.90;;;;;;5060750;28;20525;-73
2021/03/28 09:19:17;;;;;;;2.47;1.63;;;12.80;99.90;;;;;;5059807;28;20460;-71
2021/03/28 09:21:59;;;;;;;1.40;1.17;;;13.30;99.90;;;;;;5055198;28;20467;-70
2021/03/28 09:24:38;;;;;;;6.97;1.53;;;13.80;99.90;;;;;;5051685;28;20459;-72
2021/03/28 09:27:34;;;;;;;15.53;1.77;;;14.10;99.90;;;;;;5054837;28;20512;-69
2021/03/28 09:30:25;;;;;;;2.60;1.53;;;13.70;99.90;;;;;;5057432;28;20455;-72
2021/03/28 09:33:10;;;;;;;3.33;1.30;;;14.60;99.90;;;;;;5050112;28;20948;-71
2021/03/28 09:36:20;;;;;;;6.60;1.33;;;15.60;99.90;;;;;;5055497;28;20510;-68
2021/03/28 09:39:00;;;;;;;1.77;1.67;;;15.90;99.90;;;;;;5056268;28;20467;-70
2021/03/28 09:41:48;;;;;;;2.17;1.43;;;17.10;99.90;;;;;;5050306;28;20517;-72
2021/03/28 09:44:23;;;;;;;1.80;1.30;;;17.20;99.90;;;;;;5056116;28;20456;-70
2021/03/28 09:47:01;;;;;;;11.13;2.90;;;17.80;99.90;;;;;;5046392;28;20494;-71
2021/03/28 09:49:40;;;;;;;2.30;1.23;;;17.40;99.90;;;;;;5051484;28;20451;-68
2021/03/28 09:53:01;;;;;;;4.20;2.30;;;17.50;99.90;;;;;;5054278;28;20446;-72
2021/03/28 09:55:36;;;;;;;2.30;1.63;;;17.80;99.90;;;;;;4991957;28;21064;-68
2021/03/28 09:58:46;;;;;;;2.10;1.43;;;18.10;99.70;;;;;;5053349;28;20486;-72
2021/03/28 10:01:39;;;;;;;1.47;1.37;;;18.60;98.40;;;;;;5042502;28;20514;-68
2021/03/28 10:04:19;;;;;;;2.43;1.97;;;18.60;97.80;;;;;;5049427;28;20974;-69
2021/03/28 10:06:56;;;;;;;1.40;1.20;;;18.20;97.30;;;;;;5047179;28;20513;-69
2021/03/28 10:09:36;;;;;;;3.03;1.60;;;18.20;97.30;;;;;;5043074;28;20967;-72
2021/03/28 10:12:13;;;;;;;2.13;1.60;;;18.00;96.70;;;;;;5054668;28;21033;-69
2021/03/28 10:14:56;;;;;;;3.80;1.50;;;17.70;97.40;;;;;;5053428;28;20487;-70
2021/03/28 10:17:44;;;;;;;1.93;1.40;;;18.00;97.60;;;;;;5051098;28;20962;-68
2021/03/28 10:20:22;;;;;;;3.93;2.57;;;18.10;96.50;;;;;;5048821;28;20488;-69
2021/03/28 10:23:03;;;;;;;5.50;2.17;;;18.20;95.90;;;;;;5046654;28;20446;-69
2021/03/28 10:25:45;;;;;;;5.33;1.40;;;18.50;94.60;;;;;;5044966;28;20474;-72
2021/03/28 10:28:45;;;;;;;3.53;1.30;;;18.60;90.50;;;;;;5034266;28;21037;-70
2021/03/28 10:31:36;;;;;;;3.63;1.30;;;18.70;89.40;;;;;;5044902;28;20495;-68
2021/03/28 10:34:41;;;;;;;3.97;1.13;;;18.90;84.10;;;;;;5041048;28;20470;-70
2021/03/28 10:37:31;;;;;;;3.30;2.03;;;18.90;79.40;;;;;;5046114;28;20529;-71
2021/03/28 10:40:31;;;;;;;3.77;1.13;;;18.70;78.10;;;;;;5042581;28;20562;-70
2021/03/28 10:43:11;;;;;;;2.53;1.20;;;18.30;79.10;;;;;;5046800;28;20494;-72
2021/03/28 10:45:58;;;;;;;1.60;1.20;;;18.50;76.00;;;;;;5038768;28;20491;-70
2021/03/28 10:49:01;;;;;;;2.00;1.10;;;18.70;76.20;;;;;;5047571;28;20497;-68
2021/03/28 10:51:58;;;;;;;6.33;1.60;;;18.90;76.60;;;;;;5043855;28;20465;-70
2021/03/28 10:54:59;;;;;;;1.63;1.23;;;18.10;76.80;;;;;;5040457;28;20823;-69
2021/03/28 10:58:08;;;;;;;4.10;1.87;;;17.90;79.20;;;;;;5043067;28;20546;-68
2021/03/28 11:01:10;;;;;;;3.13;1.37;;;17.90;79.90;;;;;;5001550;28;20491;-70
2021/03/28 11:04:09;;;;;;;2.10;1.17;;;18.50;78.10;;;;;;5049561;28;20454;-71
2021/03/28 11:06:44;;;;;;;1.53;1.33;;;18.00;77.30;;;;;;5048590;28;21034;-72
2021/03/28 11:09:43;;;;;;;1.50;1.00;;;17.20;76.60;;;;;;5042744;28;20446;-70
2021/03/28 11:12:45;;;;;;;2.40;1.40;;;17.00;77.10;;;;;;5034580;28;20485;-73
2021/03/28 11:15:29;;;;;;;10.10;1.37;;;17.50;80.80;;;;;;5039884;28;20502;-72
2021/03/28 11:18:22;;;;;;;2.00;1.20;;;18.90;76.20;;;;;;5038700;28;20504;-69
2021/03/28 11:20:55;;;;;;;3.93;1.37;;;18.50;75.80;;;;;;5044877;28;20536;-70
2021/03/28 11:23:54;;;;;;;1.70;1.60;;;18.40;75.20;;;;;;5039014;28;20980;-72
2021/03/28 11:26:56;;;;;;;2.17;1.97;;;18.10;75.30;;;;;;5028647;28;20840;-71
2021/03/28 11:29:47;;;;;;;1.93;1.30;;;18.10;76.70;;;;;;5041703;28;20531;-70
2021/03/28 11:32:24;;;;;;;2.17;1.27;;;17.60;78.00;;;;;;5042368;28;20508;-69
2021/03/28 11:35:17;;;;;;;3.93;1.43;;;17.60;78.20;;;;;;5046366;28;20451;-70
2021/03/28 11:37:48;;;;;;;1.10;0.80;;;17.80;76.40;;;;;;5048369;28;20558;-68
2021/03/28 11:40:32;;;;;;;5.93;2.70;;;17.80;76.50;;;;;;5052864;28;20839;-69
2021/03/28 11:43:38;;;;;;;1.20;1.00;;;17.80;76.30;;;;;;5054095;28;20867;-69
2021/03/28 11:46:23;;;;;;;2.80;1.50;;;17.10;76.50;;;;;;5043096;28;20506;-70
2021/03/28 11:49:11;;;;;;;1.23;1.10;;;16.80;78.10;;;;;;5052287;28;20490;-69
2021/03/28 11:52:23;;;;;;;6.87;1.70;;;16.80;81.10;;;;;;5043381;28;20464;-71
2021/03/28 11:55:11;;;;;;;1.40;1.10;;;16.90;81.70;;;;;;5036236;28;20462;-70
2021/03/28 11:57:39;;;;;;;1.87;1.40;;;16.60;81.60;;;;;;5044898;28;20521;-69
2021/03/28 12:00:39;;;;;;;3.20;1.90;;;16.60;81.10;;;;;;5047382;28;20816;-69
2021/03/28 12:03:43;;;;;;;1.73;1.53;;;16.50;82.50;;;;;;5023763;28;20452;-70
2021/03/28 12:06:43;;;;;;;2.30;1.07;;;17.20;81.20;;;;;;5038229;28;20489;-69
2021/03/28 12:09:24;;;;;;;6.03;1.70;;;17.00;80.80;;;;;;5036617;28;20484;-70
2021/03/28 12:11:52;;;;;;;2.27;1.17;;;16.70;82.40;;;;;;5046188;28;20451;-69
2021/03/28 12:14:34;;;;;;;2.17;1.10;;;16.80;83.20;;;;;;5041707;28;20858;-67
2021/03/28 12:17:31;;;;;;;1.70;1.20;;;16.90;82.70;;;;;;5039642;28;20825;-70
2021/03/28 12:20:24;;;;;;;2.00;1.80;;;16.90;82.70;;;;;;5038833;28;20455;-71
2021/03/28 12:23:01;;;;;;;2.30;1.73;;;16.70;83.40;;;;;;5041221;28;20823;-71
2021/03/28 12:25:35;;;;;;;2.50;1.53;;;16.60;84.00;;;;;;5034783;28;20479;-72
2021/03/28 12:28:26;;;;;;;4.00;1.67;;;16.50;84.80;;;;;;5037234;28;20772;-70
2021/03/28 12:30:53;;;;;;;1.70;1.20;;;16.10;85.90;;;;;;5034678;28;20911;-70
2021/03/28 12:33:21;;;;;;;3.47;1.17;;;16.50;86.50;;;;;;5042771;28;20821;-71
2021/03/28 12:36:02;;;;;;;4.03;1.70;;;16.60;85.00;;;;;;5041838;28;20510;-72
2021/03/28 12:39:10;;;;;;;4.40;1.20;;;16.60;84.70;;;;;;5038678;28;20965;-70
2021/03/28 12:41:38;;;;;;;2.27;1.87;;;16.40;84.10;;;;;;5035295;28;20490;-71
2021/03/28 12:44:29;;;;;;;2.17;1.97;;;16.40;83.10;;;;;;5030217;28;20956;-71
2021/03/28 12:47:24;;;;;;;3.03;1.73;;;16.80;82.30;;;;;;5047156;28;21079;-71
2021/03/28 12:49:59;;;;;;;3.27;1.90;;;16.30;81.50;;;;;;5043332;28;20545;-70
2021/03/28 12:52:37;;;;;;;4.10;2.13;;;16.10;81.30;;;;;;5047179;28;20831;-68
2021/03/28 12:55:10;;;;;;;3.63;1.60;;;15.90;82.00;;;;;;5058223;28;20529;-69
2021/03/28 12:57:42;;;;;;;4.30;1.17;;;15.90;82.70;;;;;;5047465;28;20543;-68
2021/03/28 13:00:18;;;;;;;5.17;1.27;;;15.90;82.70;;;;;;5050713;28;20464;-68
2021/03/28 13:02:47;;;;;;;4.10;1.20;;;15.90;82.60;;;;;;5047757;28;20839;-71
2021/03/28 13:05:22;;;;;;;5.97;2.20;;;15.80;82.90;;;;;;5056637;28;20580;-68
2021/03/28 13:07:51;;;;;;;2.50;1.23;;;15.80;83.50;;;;;;5054851;28;20478;-69
2021/03/28 13:10:24;;;;;;;2.07;1.50;;;15.80;82.90;;;;;;5049415;28;20522;-68
2021/03/28 13:13:00;;;;;;;4.63;0.90;;;15.90;84.40;;;;;;5058133;28;20458;-69
2021/03/28 13:15:37;;;;;;;1.33;1.23;;;16.00;82.20;;;;;;5052284;28;20483;-69
2021/03/28 13:18:24;;;;;;;1.57;1.40;;;16.10;83.50;;;;;;5060642;28;20462;-69
2021/03/28 13:20:54;;;;;;;3.50;1.60;;;16.00;82.90;;;;;;5051204;28;20659;-68
2021/03/28 13:23:51;;;;;;;3.00;1.63;;;15.90;83.50;;;;;;5050178;28;20826;-70
2021/03/28 13:26:22;;;;;;;2.63;1.83;;;15.80;83.30;;;;;;5050811;28;20475;-71
2021/03/28 13:29:22;;;;;;;3.83;1.17;;;15.50;84.70;;;;;;5053338;28;20462;-70
2021/03/28 13:31:56;;;;;;;3.37;2.00;;;15.60;85.10;;;;;;5050951;28;20535;-68
2021/03/28 13:34:31;;;;;;;1.60;1.20;;;15.50;85.00;;;;;;5057036;28;20461;-71
2021/03/28 13:37:12;;;;;;;1.80;1.30;;;15.60;84.50;;;;;;5055117;28;20483;-69
2021/03/28 13:40:10;;;;;;;3.20;1.30;;;15.50;84.70;;;;;;5051201;28;20458;-71
2021/03/28 13:42:43;;;;;;;5.57;1.70;;;15.60;85.00;;;;;;5045649;28;20526;-71
2021/03/28 13:45:25;;;;;;;2.43;1.20;;;15.70;85.10;;;;;;5038964;28;20682;-70
2021/03/28 13:47:54;;;;;;;2.93;1.90;;;15.70;85.50;;;;;;5034133;28;22414;-70
2021/03/28 13:50:43;;;;;;;3.57;1.97;;;15.70;84.80;;;;;;5038009;28;20462;-71
2021/03/28 13:53:43;;;;;;;3.20;2.13;;;15.70;85.80;;;;;;5037978;28;20455;-70
2021/03/28 13:56:42;;;;;;;3.53;1.03;;;15.80;85.50;;;;;;5017193;28;20480;-68
2021/03/28 13:59:23;;;;;;;3.90;1.10;;;15.50;82.40;;;;;;5036169;28;20593;-73
2021/03/28 14:02:17;;;;;;;1.70;1.30;;;15.30;83.20;;;;;;5039735;28;20475;-71
2021/03/28 14:04:54;;;;;;;1.47;1.23;;;15.20;84.00;;;;;;5036723;28;20462;-69
2021/03/28 14:07:35;;;;;;;2.00;1.80;;;15.10;82.90;;;;;;5036753;28;20497;-72
2021/03/28 14:10:20;;;;;;;3.93;1.70;;;15.30;83.20;;;;;;5036602;28;20485;-69
2021/03/28 14:12:53;;;;;;;1.20;1.10;;;15.20;81.30;;;;;;5037921;28;20455;-72
2021/03/28 14:15:36;;;;;;;3.07;2.77;;;15.10;81.10;;;;;;5037165;28;20592;-72
2021/03/28 14:18:14;;;;;;;3.23;1.50;;;15.20;81.60;;;;;;5041266;28;20502;-68
2021/03/28 14:20:45;;;;;;;8.33;1.40;;;15.20;80.90;;;;;;5038239;28;20460;-69
2021/03/28 14:23:20;;;;;;;2.33;1.37;;;15.20;81.40;;;;;;5033816;28;20482;-73
2021/03/28 14:25:49;;;;;;;1.73;1.30;;;15.20;81.50;;;;;;5031149;28;20934;-69
2021/03/28 14:28:37;;;;;;;2.13;1.87;;;15.20;82.20;;;;;;5032128;28;20454;-70
2021/03/28 14:31:14;;;;;;;2.50;1.30;;;15.20;82.80;;;;;;5035698;28;20509;-69
2021/03/28 14:33:57;;;;;;;1.43;1.03;;;15.20;82.00;;;;;;5031876;28;20454;-73
2021/03/28 14:36:42;;;;;;;2.20;1.80;;;15.10;82.00;;;;;;5037793;28;20479;-70
2021/03/28 14:39:48;;;;;;;1.20;1.10;;;15.00;82.80;;;;;;5036417;28;20473;-72
2021/03/28 14:42:17;;;;;;;3.20;1.33;;;15.00;83.20;;;;;;5038969;28;20490;-72
2021/03/28 14:45:11;;;;;;;2.90;1.90;;;14.80;83.80;;;;;;5036223;28;20457;-69